Kalac, Russia
Current Conditions -  °F | °C
As of 9:30 AM on Thursday 23 Oct 2014 (Local Time) from UUOO Reporting Station
Broken Clouds Broken Clouds  
Wind Chill: 15°   Ceiling: 2500
Heat Index: 25°   Visibility: 6mi
Dew Point: 16°   Wind: 9mph
Humidity: 69%   Direction: 350°N
Pressure: 30.18"   Gusts: NA
Location:  50.41°N, 41.01°E
Report Text: UUOO 230630Z 35004MPS 9999 BKN025 M04/M09 Q1022 NOSIG RMK12090070
Loading
Personal Weather Stations






























Interactive Weather Map
Tropical Storm Tracking
New forecast layout! Learn more

10-Day Weather Forecast

Advertisements
Track Severe Weather on mobile